Time;durP1;ratioP1;P1;durP2;ratioP2;P2;SDS_P1;SDS_P2;PMS_P1;PMS_P2;Temp;Humidity;BMP_temperature;BMP_pressure;BME280_temperature;BME280_humidity;BME280_pressure;Samples;Min_cycle;Max_cycle;Signal;HPM_P1;HPM_P2
2022/08/14 00:01:41;;;;;;;8.43;5.40;;;;;;;19.35;59.67;101003.59;5052038;28;20029;-82
2022/08/14 00:04:06;;;;;;;6.23;5.00;;;;;;;19.37;60.49;101000.56;5052764;28;20387;-82
2022/08/14 00:06:31;;;;;;;5.93;4.87;;;;;;;19.31;60.17;100997.19;5052353;28;20032;-82
2022/08/14 00:08:56;;;;;;;7.00;4.83;;;;;;;19.24;61.46;100998.75;5052447;28;20024;-82
2022/08/14 00:11:22;;;;;;;6.00;5.40;;;;;;;19.19;61.17;100995.06;5051793;28;20826;-82
2022/08/14 00:13:47;;;;;;;5.40;4.77;;;;;;;19.10;61.35;100998.84;5052444;28;20024;-82
2022/08/14 00:16:13;;;;;;;6.00;5.23;;;;;;;19.03;62.12;100991.97;5051228;28;20021;-82
2022/08/14 00:18:39;;;;;;;7.15;4.90;;;;;;;19.02;61.38;100990.34;5051011;28;20032;-81
2022/08/14 00:21:05;;;;;;;7.75;5.32;;;;;;;18.97;62.60;100990.47;5051813;28;20021;-81
2022/08/14 00:23:30;;;;;;;6.23;5.30;;;;;;;18.96;61.39;100982.66;5052247;28;20024;-81
2022/08/14 00:28:26;;;;;;;11.82;5.47;;;;;;;18.88;62.26;100981.47;5025838;28;20054;-81
2022/08/14 00:30:56;;;;;;;6.72;5.60;;;;;;;18.86;61.49;100975.53;5012054;28;20030;-80
2022/08/14 00:33:22;;;;;;;9.18;5.63;;;;;;;18.75;61.88;100969.56;5012386;28;20037;-80
2022/08/14 00:35:48;;;;;;;7.10;5.40;;;;;;;18.72;61.51;100970.19;5017585;28;20025;-81
2022/08/14 00:38:14;;;;;;;7.53;5.60;;;;;;;18.70;61.60;100969.69;5031986;28;20272;-81
2022/08/14 00:40:39;;;;;;;6.20;5.60;;;;;;;18.67;62.34;100965.69;5039238;28;20021;-81
2022/08/14 00:43:05;;;;;;;11.23;6.30;;;;;;;18.57;63.00;100955.06;5045399;28;20292;-80
2022/08/14 00:45:30;;;;;;;6.70;5.23;;;;;;;18.54;62.65;100952.97;5051539;28;20599;-81
2022/08/14 00:47:57;;;;;;;6.25;5.50;;;;;;;18.45;62.21;100944.75;5048765;28;20040;-80
2022/08/14 00:50:22;;;;;;;7.33;5.50;;;;;;;18.47;62.57;100947.97;5032007;28;20126;-81
2022/08/14 00:52:51;;;;;;;6.90;6.00;;;;;;;18.43;62.68;100944.28;5043319;28;20766;-80
2022/08/14 00:55:18;;;;;;;7.70;5.97;;;;;;;18.42;62.37;100946.19;5051569;28;20025;-80
2022/08/14 00:57:44;;;;;;;7.60;6.00;;;;;;;18.34;63.04;100935.28;5040642;28;20029;-80
2022/08/14 01:00:14;;;;;;;8.57;6.27;;;;;;;18.31;63.10;100942.91;5031412;28;20036;-81
2022/08/14 01:02:42;;;;;;;9.15;6.75;;;;;;;18.22;64.28;100928.50;5031600;28;20525;-81
2022/08/14 01:05:22;;;;;;;7.60;6.53;;;;;;;18.24;64.09;100937.13;5031677;28;20057;-81
2022/08/14 01:07:52;;;;;;;8.13;6.40;;;;;;;18.22;63.98;100931.22;5031355;28;20025;-80
2022/08/14 01:10:19;;;;;;;8.73;6.53;;;;;;;18.19;63.79;100914.72;5031355;28;20070;-80
2022/08/14 01:12:47;;;;;;;7.43;6.57;;;;;;;18.13;63.28;100908.63;5047761;28;20048;-81
2022/08/14 01:15:12;;;;;;;7.13;6.53;;;;;;;18.15;63.83;100917.28;5051283;28;20276;-81
2022/08/14 01:23:07;;;;;;;7.50;6.45;;;;;;;17.99;63.53;100906.78;5035136;28;20820;-80
2022/08/14 01:25:33;;;;;;;7.18;6.47;;;;;;;17.99;63.71;100903.25;5046416;28;20025;-80
2022/08/14 01:27:58;;;;;;;8.00;6.97;;;;;;;17.91;64.15;100904.75;5030435;28;20084;-81
2022/08/14 01:30:25;;;;;;;8.05;7.25;;;;;;;17.89;64.28;100906.19;5030004;28;20057;-80
2022/08/14 01:32:51;;;;;;;11.93;7.13;;;;;;;17.83;64.75;100898.16;5031156;28;20461;-80
2022/08/14 01:35:16;;;;;;;10.20;6.72;;;;;;;17.83;64.58;100903.56;5044396;28;20031;-80
2022/08/14 01:37:48;;;;;;;8.30;7.43;;;;;;;17.78;65.17;100908.31;5051014;28;20059;-81
2022/08/14 01:40:14;;;;;;;14.30;7.30;;;;;;;17.70;66.26;100904.41;5042577;28;20025;-80
2022/08/14 01:42:42;;;;;;;9.93;7.60;;;;;;;17.68;66.00;100902.03;5046187;28;20032;-80
2022/08/14 01:45:11;;;;;;;9.07;6.70;;;;;;;17.69;65.35;100919.06;5050688;28;20037;-82
2022/08/14 01:47:37;;;;;;;10.43;7.05;;;;;;;17.63;65.38;100910.25;5045396;28;20025;-82
2022/08/14 01:50:05;;;;;;;7.97;7.18;;;;;;;17.60;66.02;100913.56;5050199;28;20713;-82
2022/08/14 01:52:35;;;;;;;9.80;6.45;;;;;;;17.60;65.64;100910.84;5049832;28;20589;-82
2022/08/14 01:55:05;;;;;;;9.20;6.17;;;;;;;17.58;66.86;100913.06;5036697;28;20032;-82
2022/08/14 01:57:36;;;;;;;7.73;6.87;;;;;;;17.56;68.23;100917.97;5030950;28;20280;-82
2022/08/14 02:00:05;;;;;;;7.47;6.72;;;;;;;17.51;67.79;100912.69;5045869;28;20033;-81
2022/08/14 02:02:31;;;;;;;12.70;7.15;;;;;;;17.45;67.80;100905.75;5045308;28;20036;-81
2022/08/14 02:04:57;;;;;;;10.00;6.90;;;;;;;17.36;67.73;100909.16;5039708;28;20024;-81
2022/08/14 02:07:23;;;;;;;9.93;6.85;;;;;;;17.40;68.05;100901.25;5038403;28;20658;-81
2022/08/14 02:09:48;;;;;;;10.23;7.10;;;;;;;17.33;68.90;100884.59;5047305;28;20453;-81
2022/08/14 02:12:14;;;;;;;8.70;6.97;;;;;;;17.24;69.13;100898.03;5046171;28;20724;-81
2022/08/14 02:14:39;;;;;;;7.85;6.70;;;;;;;17.17;69.80;100890.31;5050581;28;20025;-81
2022/08/14 02:17:08;;;;;;;17.23;7.20;;;;;;;17.19;70.68;100898.13;5049437;28;20562;-81
2022/08/14 02:19:34;;;;;;;9.25;6.75;;;;;;;17.16;70.41;100896.06;5049463;28;20477;-81
2022/08/14 02:22:01;;;;;;;7.50;6.63;;;;;;;17.13;70.38;100896.66;5048546;28;20031;-81
2022/08/14 02:24:28;;;;;;;8.48;6.43;;;;;;;17.12;70.12;100897.75;5048596;28;20017;-80
2022/08/14 02:26:57;;;;;;;8.07;6.70;;;;;;;17.05;69.63;100890.81;5048989;28;20037;-81
2022/08/14 02:29:24;;;;;;;8.20;6.80;;;;;;;17.08;70.11;100892.09;5045732;28;20040;-81
2022/08/14 02:31:52;;;;;;;7.73;6.90;;;;;;;17.02;69.67;100894.13;5048030;28;20294;-81
2022/08/14 02:34:30;;;;;;;8.20;6.63;;;;;;;17.05;69.14;100890.81;5050001;28;20033;-81
2022/08/14 02:37:01;;;;;;;8.77;6.85;;;;;;;17.04;69.89;100894.63;5031153;28;20039;-80
2022/08/14 02:39:28;;;;;;;11.98;7.28;;;;;;;16.95;70.04;100889.09;5043673;28;20461;-81
2022/08/14 02:41:53;;;;;;;7.70;6.90;;;;;;;16.97;70.38;100901.53;5035854;28;20082;-81
2022/08/14 02:44:21;;;;;;;7.60;6.90;;;;;;;16.83;70.69;100896.06;5048072;28;20033;-81
2022/08/14 02:46:48;;;;;;;8.35;7.03;;;;;;;16.86;70.20;100899.00;5029585;28;20084;-81
2022/08/14 02:49:14;;;;;;;9.70;6.90;;;;;;;16.72;70.91;100888.16;5040370;28;20033;-81
2022/08/14 02:51:40;;;;;;;10.05;7.70;;;;;;;16.71;71.75;100899.25;5047788;28;20021;-82
2022/08/14 02:54:07;;;;;;;12.27;8.07;;;;;;;16.66;72.41;100892.03;5039073;28;20048;-81
2022/08/14 02:56:37;;;;;;;9.85;7.80;;;;;;;16.65;71.29;100885.84;5029942;28;20022;-82
2022/08/14 02:59:05;;;;;;;9.90;7.80;;;;;;;16.63;71.78;100888.03;5029766;28;20021;-83
2022/08/14 03:01:32;;;;;;;10.52;7.97;;;;;;;16.56;71.49;100882.19;5033810;28;20033;-82
2022/08/14 03:03:58;;;;;;;10.73;7.90;;;;;;;16.48;71.64;100872.84;5049443;28;20021;-83
2022/08/14 03:06:24;;;;;;;8.70;7.80;;;;;;;16.49;71.47;100873.69;5039043;28;20075;-87
2022/08/14 03:08:52;;;;;;;13.52;7.97;;;;;;;16.50;72.68;100865.25;5024393;28;20041;-85
2022/08/14 03:11:20;;;;;;;13.05;8.05;;;;;;;16.50;72.33;100864.47;5036282;28;20018;-88
2022/08/14 03:13:50;;;;;;;8.23;7.17;;;;;;;16.44;72.81;100869.13;5041738;28;20449;-87
2022/08/14 03:16:19;;;;;;;12.97;8.13;;;;;;;16.46;72.66;100868.84;5044557;28;20366;-88
2022/08/14 03:18:46;;;;;;;8.73;7.35;;;;;;;16.35;73.16;100863.59;5031245;28;20045;-88
2022/08/14 03:21:15;;;;;;;10.15;8.05;;;;;;;16.35;73.80;100858.19;5036510;28;20560;-88
2022/08/14 03:23:42;;;;;;;13.13;7.85;;;;;;;16.35;73.21;100865.53;5049534;28;20029;-88
2022/08/14 03:26:09;;;;;;;11.60;8.60;;;;;;;16.35;73.71;100874.41;5044233;28;20063;-85
2022/08/14 03:28:35;;;;;;;9.60;8.50;;;;;;;16.29;74.03;100869.41;5020613;28;20403;-84
2022/08/14 03:31:00;;;;;;;11.17;7.70;;;;;;;16.27;74.53;100871.59;5029843;28;20112;-83
2022/08/14 03:33:26;;;;;;;10.00;8.10;;;;;;;16.19;73.67;100865.78;5035125;28;20025;-84
2022/08/14 03:35:52;;;;;;;13.37;8.77;;;;;;;16.18;74.33;100864.16;5033301;28;20384;-84
2022/08/14 03:38:18;;;;;;;13.47;8.33;;;;;;;16.14;73.96;100852.31;5046608;28;20363;-85
2022/08/14 03:40:45;;;;;;;9.73;8.73;;;;;;;16.21;73.89;100865.47;5036577;28;20158;-85
2022/08/14 03:43:11;;;;;;;11.48;9.18;;;;;;;16.23;74.08;100860.56;5036873;28;20025;-84
2022/08/14 03:45:39;;;;;;;11.60;8.73;;;;;;;16.27;73.55;100849.97;5029927;28;20026;-84
2022/08/14 03:48:18;;;;;;;12.50;9.25;;;;;;;16.26;72.92;100854.56;5029261;28;20068;-83
2022/08/14 03:50:50;;;;;;;10.13;9.13;;;;;;;16.22;73.21;100847.34;5029142;28;20036;-84
2022/08/14 03:53:16;;;;;;;10.65;9.13;;;;;;;16.16;74.21;100852.84;5044026;28;20044;-84
2022/08/14 03:55:42;;;;;;;10.90;9.35;;;;;;;16.11;73.99;100858.31;5033149;28;20025;-85
2022/08/14 03:58:07;;;;;;;12.47;9.40;;;;;;;16.02;74.28;100857.38;5051504;28;20035;-81
2022/08/14 04:00:35;;;;;;;12.80;9.15;;;;;;;15.94;74.69;100852.63;5052287;28;20047;-81
2022/08/14 04:03:06;;;;;;;12.82;9.00;;;;;;;15.92;74.59;100854.81;5051609;28;20033;-81
2022/08/14 04:05:32;;;;;;;16.77;9.77;;;;;;;15.81;76.05;100854.97;5052593;28;20091;-81
2022/08/14 04:07:58;;;;;;;17.33;9.43;;;;;;;15.79;75.55;100861.75;5052402;28;20331;-81
2022/08/14 04:10:23;;;;;;;12.55;8.48;;;;;;;15.73;75.00;100856.41;5052019;28;20108;-81
2022/08/14 04:12:49;;;;;;;13.10;9.47;;;;;;;15.69;75.30;100847.28;5044484;28;20772;-80
2022/08/14 04:15:18;;;;;;;10.57;9.48;;;;;;;15.78;75.74;100849.34;5042516;28;20029;-81
2022/08/14 04:17:44;;;;;;;11.80;9.95;;;;;;;15.84;76.67;100848.16;5015604;28;20633;-80
2022/08/14 04:20:11;;;;;;;11.77;9.27;;;;;;;15.90;75.88;100852.44;5049169;28;20052;-80
2022/08/14 04:22:42;;;;;;;10.98;9.88;;;;;;;15.90;75.36;100845.13;5051060;28;20495;-80
2022/08/14 04:25:08;;;;;;;13.80;9.88;;;;;;;15.91;75.60;100848.63;5034006;28;20503;-80
2022/08/14 04:27:34;;;;;;;12.88;10.07;;;;;;;15.81;76.08;100844.16;5044205;28;20033;-80
2022/08/14 04:30:00;;;;;;;14.00;9.48;;;;;;;15.75;76.66;100846.13;5050933;28;20491;-80
2022/08/14 04:32:26;;;;;;;12.35;9.80;;;;;;;15.71;76.90;100849.69;5040847;28;20074;-80
2022/08/14 04:34:52;;;;;;;14.13;10.27;;;;;;;15.67;76.86;100844.06;5048680;28;20078;-80
2022/08/14 04:45:39;;;;;;;17.67;10.40;;;;;;;15.73;76.31;100825.88;5051082;28;20514;-80
2022/08/14 04:48:15;;;;;;;12.37;10.27;;;;;;;15.82;75.25;100818.75;5051512;28;20753;-80
2022/08/14 04:50:49;;;;;;;14.05;10.43;;;;;;;15.85;75.42;100818.19;5051645;28;20096;-80
2022/08/14 04:53:19;;;;;;;15.77;11.25;;;;;;;15.93;74.96;100822.13;5050933;28;20115;-81
2022/08/14 04:55:47;;;;;;;16.10;11.07;;;;;;;16.00;75.07;100821.75;5033876;28;20025;-80
2022/08/14 04:58:14;;;;;;;13.32;11.02;;;;;;;16.03;75.34;100818.47;5050416;28;20041;-80
2022/08/14 05:00:39;;;;;;;15.40;10.52;;;;;;;16.02;75.09;100816.84;5047237;28;20457;-81
2022/08/14 05:03:06;;;;;;;15.77;11.17;;;;;;;16.07;75.11;100819.44;5041967;28;20059;-80
2022/08/14 05:05:32;;;;;;;17.40;11.02;;;;;;;16.10;74.62;100823.47;5051077;28;20112;-80
2022/08/14 05:08:11;;;;;;;14.85;11.52;;;;;;;16.14;74.30;100808.28;5051120;28;20104;-80
2022/08/14 05:10:39;;;;;;;15.02;10.65;;;;;;;16.22;74.76;100814.91;5051087;28;20029;-80
2022/08/14 05:13:05;;;;;;;17.65;11.45;;;;;;;16.24;74.67;100810.03;5049509;28;20061;-80
2022/08/14 05:15:35;;;;;;;14.80;10.80;;;;;;;16.31;73.61;100818.53;5036552;28;20117;-80
2022/08/14 05:18:11;;;;;;;16.83;10.80;;;;;;;16.35;73.97;100820.34;5036787;28;20159;-80
2022/08/14 05:20:45;;;;;;;18.67;11.60;;;;;;;16.40;73.70;100816.75;5050668;28;20029;-83
2022/08/14 05:23:17;;;;;;;16.95;11.77;;;;;;;16.47;73.86;100819.88;5051339;28;20020;-82
2022/08/14 05:25:43;;;;;;;16.17;11.52;;;;;;;16.55;73.58;100807.56;5048132;28;20037;-83
2022/08/14 05:28:17;;;;;;;14.07;11.63;;;;;;;16.64;73.09;100816.59;5031130;28;20500;-82
2022/08/14 05:30:47;;;;;;;16.35;11.40;;;;;;;16.94;72.29;100813.59;5038958;28;20032;-82
2022/08/14 05:33:15;;;;;;;13.90;11.65;;;;;;;17.37;71.66;100810.56;5051122;28;20029;-82
2022/08/14 05:35:42;;;;;;;14.70;11.50;;;;;;;17.70;70.60;100812.28;5037433;28;20029;-83
2022/08/14 05:38:12;;;;;;;15.70;11.17;;;;;;;17.91;69.25;100806.38;5030664;28;20041;-83
2022/08/14 05:40:39;;;;;;;15.37;11.20;;;;;;;18.04;68.80;100808.25;5033561;28;20852;-85
2022/08/14 05:43:05;;;;;;;15.15;11.50;;;;;;;18.12;69.44;100809.41;5036277;28;20068;-85
2022/08/14 05:45:30;;;;;;;14.20;11.55;;;;;;;18.17;68.33;100814.72;5050841;28;20110;-85
2022/08/14 05:47:55;;;;;;;15.87;11.23;;;;;;;18.20;68.84;100818.72;5050573;28;20036;-86
2022/08/14 05:50:21;;;;;;;15.93;12.00;;;;;;;18.16;69.04;100807.69;5049845;28;20425;-86
2022/08/14 05:52:48;;;;;;;14.38;11.20;;;;;;;18.20;68.49;100808.69;5050864;28;20025;-86
2022/08/14 05:55:15;;;;;;;13.83;10.90;;;;;;;18.23;69.43;100812.69;5050376;28;20055;-85
2022/08/14 05:57:54;;;;;;;17.27;12.53;;;;;;;18.25;68.53;100805.84;5044460;28;20358;-86
2022/08/14 06:00:23;;;;;;;17.95;11.38;;;;;;;18.33;69.09;100814.34;5029976;28;20036;-86
2022/08/14 06:02:48;;;;;;;17.23;12.32;;;;;;;18.35;68.70;100806.69;5030440;28;20026;-86
2022/08/14 06:05:14;;;;;;;14.73;11.50;;;;;;;18.41;69.31;100819.03;5030858;28;20032;-86
2022/08/14 06:07:39;;;;;;;13.57;12.07;;;;;;;18.46;69.63;100816.16;5033693;28;20027;-85
2022/08/14 06:10:07;;;;;;;16.07;11.23;;;;;;;18.53;68.74;100802.16;5049284;28;20045;-86
2022/08/14 06:12:32;;;;;;;15.40;11.48;;;;;;;18.61;69.69;100807.63;5042400;28;20082;-86
2022/08/14 06:14:58;;;;;;;17.60;12.93;;;;;;;18.69;70.15;100810.66;5050273;28;20426;-86
2022/08/14 06:17:24;;;;;;;17.38;12.52;;;;;;;18.78;69.96;100806.09;5049795;28;20067;-86
2022/08/14 06:19:49;;;;;;;16.27;12.37;;;;;;;18.90;70.17;100816.31;5047937;28;20472;-87
2022/08/14 06:22:14;;;;;;;16.73;11.83;;;;;;;19.06;67.89;100814.00;5050318;28;20094;-86
2022/08/14 06:24:40;;;;;;;13.80;11.23;;;;;;;19.18;67.90;100810.69;5050059;28;20267;-86
2022/08/14 06:27:05;;;;;;;13.67;11.77;;;;;;;19.31;68.32;100795.38;5036784;28;20480;-86
2022/08/14 06:29:31;;;;;;;14.83;11.83;;;;;;;19.44;68.71;100802.56;5012278;28;20071;-86
2022/08/14 06:31:57;;;;;;;13.60;11.93;;;;;;;19.56;68.26;100806.56;5029137;28;20029;-86
2022/08/14 06:34:22;;;;;;;15.73;11.52;;;;;;;19.68;68.76;100798.59;5012700;28;20366;-86
2022/08/14 06:36:47;;;;;;;15.75;12.02;;;;;;;19.81;68.05;100800.34;5039958;28;20090;-86
2022/08/14 06:39:13;;;;;;;13.77;11.40;;;;;;;19.96;67.60;100803.69;5012402;28;20384;-86
2022/08/14 06:41:40;;;;;;;12.73;11.13;;;;;;;20.10;67.21;100789.94;5045319;28;20037;-86
2022/08/14 06:44:06;;;;;;;14.40;10.73;;;;;;;20.28;67.31;100793.38;5049281;28;20115;-84
2022/08/14 06:46:31;;;;;;;13.43;10.63;;;;;;;20.46;66.85;100796.03;5050034;28;20179;-82
2022/08/14 06:48:57;;;;;;;12.33;10.30;;;;;;;20.57;66.25;100789.13;5049424;28;20021;-83
2022/08/14 06:51:22;;;;;;;15.75;10.65;;;;;;;20.75;65.58;100794.50;5049645;28;20036;-84
2022/08/14 06:58:57;;;;;;;13.30;10.17;;;;;;;21.26;63.75;100786.38;5624962;22;20306;-82
2022/08/14 07:06:55;;;;;;;12.55;9.52;;;;;;;21.65;62.18;100786.25;5068064;28;20036;-82
2022/08/14 07:09:20;;;;;;;10.85;9.75;;;;;;;21.78;61.57;100785.16;5059729;28;20037;-82
2022/08/14 07:11:45;;;;;;;11.00;7.97;;;;;;;21.96;59.79;100780.34;5048654;28;20025;-82
2022/08/14 07:14:11;;;;;;;10.40;8.00;;;;;;;22.09;59.18;100784.69;5057656;28;20120;-82
2022/08/14 07:16:36;;;;;;;9.23;7.70;;;;;;;22.17;58.59;100774.81;5069277;28;20028;-83
2022/08/14 07:19:01;;;;;;;8.20;7.40;;;;;;;22.29;57.69;100775.97;5058478;28;20427;-84
2022/08/14 07:21:27;;;;;;;8.50;7.30;;;;;;;22.38;57.55;100780.19;5048804;28;20108;-84
2022/08/14 07:23:52;;;;;;;8.37;7.50;;;;;;;22.48;57.46;100778.19;5059470;28;20021;-85
2022/08/14 07:26:17;;;;;;;9.40;7.30;;;;;;;22.61;56.82;100779.00;5070062;28;20286;-84
2022/08/14 07:28:43;;;;;;;7.43;6.67;;;;;;;22.72;56.99;100780.13;5071443;28;20028;-85
2022/08/14 07:31:10;;;;;;;10.68;7.50;;;;;;;22.90;56.03;100788.91;5072963;28;20029;-85
2022/08/14 07:33:47;;;;;;;8.77;7.87;;;;;;;22.98;56.56;100793.41;5072597;28;20025;-84
2022/08/14 07:36:15;;;;;;;8.77;7.72;;;;;;;23.07;56.47;100787.06;5073050;28;20021;-84
2022/08/14 07:38:40;;;;;;;9.65;7.88;;;;;;;23.14;55.87;100784.50;5056176;28;20094;-84
2022/08/14 07:41:07;;;;;;;10.90;8.00;;;;;;;23.27;55.41;100782.59;5052491;28;20116;-85
2022/08/14 07:43:33;;;;;;;10.25;7.68;;;;;;;23.33;54.91;100774.94;5058348;28;20087;-86
2022/08/14 07:45:59;;;;;;;9.80;7.90;;;;;;;23.37;54.53;100779.34;5055410;28;20436;-86
2022/08/14 07:48:24;;;;;;;10.23;6.97;;;;;;;23.39;54.79;100762.63;5068486;28;20036;-85
2022/08/14 07:50:49;;;;;;;8.97;7.10;;;;;;;23.55;55.14;100774.41;5052136;28;20492;-85
2022/08/14 07:53:16;;;;;;;9.53;7.27;;;;;;;23.69;54.34;100768.53;5054868;28;20121;-85
2022/08/14 07:55:42;;;;;;;10.43;8.00;;;;;;;23.73;54.09;100763.97;5054214;28;20024;-85
2022/08/14 07:58:08;;;;;;;10.95;8.23;;;;;;;23.77;53.00;100764.06;5052301;28;20027;-86
2022/08/14 08:00:33;;;;;;;13.47;8.27;;;;;;;23.96;52.93;100777.06;5058275;28;20021;-86
2022/08/14 08:02:59;;;;;;;13.48;8.38;;;;;;;24.08;52.57;100778.19;5067652;28;20052;-85
2022/08/14 08:05:25;;;;;;;11.83;8.10;;;;;;;24.22;51.79;100784.00;5071385;28;20025;-84
2022/08/14 08:07:52;;;;;;;9.05;7.70;;;;;;;24.32;51.60;100782.69;5069471;28;20032;-84
2022/08/14 08:10:30;;;;;;;11.03;8.47;;;;;;;24.39;51.17;100782.06;5072362;28;20020;-84
2022/08/14 08:13:03;;;;;;;11.80;7.97;;;;;;;24.51;51.59;100787.44;5070555;28;20298;-85
2022/08/14 08:15:31;;;;;;;8.57;7.43;;;;;;;24.70;51.40;100784.03;5072566;28;20032;-84
2022/08/14 08:17:59;;;;;;;11.35;7.95;;;;;;;24.79;51.26;100776.41;5070723;28;20071;-85
2022/08/14 08:20:26;;;;;;;11.40;7.40;;;;;;;24.95;49.98;100781.03;5071966;28;20025;-88
2022/08/14 08:22:55;;;;;;;10.73;7.05;;;;;;;25.07;49.50;100772.72;5068475;28;20415;-84
2022/08/14 08:25:20;;;;;;;8.93;6.50;;;;;;;25.16;49.11;100761.53;5060683;28;20033;-85
2022/08/14 08:28:07;;;;;;;10.77;7.50;;;;;;;25.28;49.55;100759.81;5063807;28;20055;-85
2022/08/14 08:30:34;;;;;;;9.52;7.75;;;;;;;25.42;49.01;100762.06;5055118;28;20040;-86
2022/08/14 08:33:00;;;;;;;11.35;7.40;;;;;;;25.59;48.69;100749.84;5045684;28;20101;-86
2022/08/14 08:35:33;;;;;;;9.85;6.63;;;;;;;25.70;48.63;100756.34;5071847;28;20048;-85
2022/08/14 08:38:07;;;;;;;7.90;7.10;;;;;;;25.78;46.56;100760.03;5060869;28;20056;-84
2022/08/14 08:40:41;;;;;;;8.80;7.63;;;;;;;25.87;46.29;100755.09;5070543;28;20068;-85
2022/08/14 08:43:16;;;;;;;7.13;6.43;;;;;;;26.10;45.79;100762.53;5069953;28;20025;-84
2022/08/14 08:45:41;;;;;;;9.40;7.43;;;;;;;26.19;45.90;100762.31;5051958;28;20268;-85
2022/08/14 08:48:07;;;;;;;10.85;6.93;;;;;;;26.32;45.12;100758.22;5064999;28;20029;-84
2022/08/14 08:50:36;;;;;;;7.77;6.80;;;;;;;26.54;45.36;100764.88;5068524;28;20514;-83
2022/08/14 08:53:04;;;;;;;7.47;6.78;;;;;;;26.74;44.61;100767.50;5070771;28;20549;-84
2022/08/14 08:55:39;;;;;;;7.72;6.90;;;;;;;26.95;45.18;100764.28;5071708;28;20025;-84
2022/08/14 08:58:09;;;;;;;7.90;6.97;;;;;;;27.05;44.30;100762.84;5071808;28;20127;-84
2022/08/14 09:00:37;;;;;;;7.03;6.33;;;;;;;27.16;43.37;100758.28;5071410;28;20391;-84
2022/08/14 09:03:08;;;;;;;10.80;5.90;;;;;;;27.24;42.45;100753.66;5063396;28;20318;-84
2022/08/14 09:05:50;;;;;;;9.30;6.47;;;;;;;27.29;41.81;100753.31;5051922;28;20100;-84
2022/08/14 09:08:21;;;;;;;8.32;6.05;;;;;;;27.49;41.78;100764.19;5070223;28;20117;-84
2022/08/14 09:10:47;;;;;;;10.73;7.10;;;;;;;27.57;43.99;100752.06;5070922;28;20473;-84
2022/08/14 09:13:14;;;;;;;9.80;7.18;;;;;;;27.72;43.32;100742.03;5065417;28;20036;-84
2022/08/14 09:15:45;;;;;;;7.72;6.13;;;;;;;27.90;41.51;100738.66;5051808;28;20108;-85
2022/08/14 09:18:12;;;;;;;7.80;7.00;;;;;;;28.05;42.68;100734.06;5066553;28;20736;-84
2022/08/14 09:20:39;;;;;;;6.43;5.73;;;;;;;28.09;41.37;100737.66;5067968;28;20020;-84
2022/08/14 09:23:06;;;;;;;6.53;5.93;;;;;;;28.29;41.06;100735.47;5067866;28;20319;-84
2022/08/14 09:25:32;;;;;;;6.70;6.00;;;;;;;28.26;39.49;100737.03;5053888;28;20086;-83
2022/08/14 09:27:57;;;;;;;8.18;6.55;;;;;;;28.32;40.70;100726.44;5066095;28;20040;-85
2022/08/14 09:30:23;;;;;;;8.57;6.30;;;;;;;28.39;40.21;100733.97;5068929;28;20040;-84
2022/08/14 09:33:00;;;;;;;7.57;6.53;;;;;;;28.59;39.65;100730.94;5068494;28;20033;-84
2022/08/14 09:35:50;;;;;;;8.03;6.53;;;;;;;28.59;39.56;100723.44;5060719;28;20341;-84
2022/08/14 09:38:27;;;;;;;6.43;5.93;;;;;;;28.71;40.39;100723.16;5050901;28;20036;-85
2022/08/14 09:41:22;;;;;;;7.53;6.28;;;;;;;28.92;40.98;100729.16;5050999;28;20040;-86
2022/08/14 09:43:59;;;;;;;6.95;6.03;;;;;;;29.10;39.46;100726.50;5058520;28;20052;-85
2022/08/14 09:46:26;;;;;;;6.70;6.03;;;;;;;29.21;39.33;100713.53;5067139;28;20456;-85
2022/08/14 09:49:00;;;;;;;10.32;5.80;;;;;;;29.34;40.34;100715.91;5057561;28;20040;-84
2022/08/14 09:51:27;;;;;;;9.27;6.78;;;;;;;29.36;41.31;100714.41;5067416;28;20020;-84
2022/08/14 09:54:11;;;;;;;7.28;6.68;;;;;;;29.46;40.19;100708.09;5067105;28;20020;-84
2022/08/14 09:56:44;;;;;;;7.35;6.55;;;;;;;29.54;40.69;100702.59;5056636;28;20664;-83
2022/08/14 09:59:13;;;;;;;8.67;5.60;;;;;;;29.68;39.67;100702.63;5058963;28;20407;-84
2022/08/14 10:01:42;;;;;;;9.60;6.43;;;;;;;29.85;38.97;100690.03;5059261;28;20322;-84
2022/08/14 10:04:23;;;;;;;8.52;6.18;;;;;;;30.04;39.45;100690.81;5064513;28;20541;-84
2022/08/14 10:06:50;;;;;;;8.23;5.85;;;;;;;30.12;37.83;100691.63;5063714;28;20025;-85
2022/08/14 10:09:16;;;;;;;11.98;6.63;;;;;;;30.08;38.40;100679.78;5038228;28;20116;-84
2022/08/14 10:11:53;;;;;;;6.25;5.55;;;;;;;30.39;36.94;100688.41;5049998;28;20150;-84
2022/08/14 10:14:21;;;;;;;9.40;5.72;;;;;;;30.45;35.75;100681.28;5050151;28;20028;-85
2022/08/14 10:16:52;;;;;;;12.40;6.20;;;;;;;30.61;36.91;100681.66;5062530;28;20035;-85
2022/08/14 10:19:18;;;;;;;7.60;5.80;;;;;;;30.67;36.90;100668.22;5066979;28;20032;-85
2022/08/14 10:22:07;;;;;;;6.40;5.80;;;;;;;30.88;36.09;100674.84;5065944;28;20032;-85
2022/08/14 10:24:46;;;;;;;6.93;6.22;;;;;;;30.83;35.75;100667.75;5069290;28;20078;-88
2022/08/14 10:27:17;;;;;;;13.85;5.38;;;;;;;31.05;34.48;100665.66;5069721;28;20055;-87
2022/08/14 10:29:48;;;;;;;13.73;5.72;;;;;;;31.32;34.96;100667.13;5069358;28;20024;-84
2022/08/14 10:32:13;;;;;;;7.55;5.55;;;;;;;31.40;33.74;100668.66;5069280;28;20103;-86
2022/08/14 10:34:39;;;;;;;7.47;5.43;;;;;;;31.64;33.92;100663.34;5060920;28;20078;-86
2022/08/14 10:37:10;;;;;;;5.60;4.70;;;;;;;31.74;33.01;100654.19;5052678;28;20472;-86
2022/08/14 10:39:37;;;;;;;9.32;5.18;;;;;;;32.07;33.13;100637.25;5069385;28;20048;-87
2022/08/14 10:42:06;;;;;;;5.15;4.75;;;;;;;32.13;31.94;100644.72;5069684;28;20063;-88
2022/08/14 10:44:35;;;;;;;6.37;5.10;;;;;;;32.31;31.29;100641.00;5070059;28;20044;-88
2022/08/14 10:47:08;;;;;;;8.97;5.13;;;;;;;32.32;31.92;100635.03;5066463;28;20655;-87
2022/08/14 10:49:49;;;;;;;5.43;4.97;;;;;;;32.40;31.73;100630.19;5069842;28;20032;-87
2022/08/14 10:52:45;;;;;;;6.45;5.43;;;;;;;32.57;31.61;100644.25;5069895;28;20075;-86
2022/08/14 10:55:12;;;;;;;7.68;5.68;;;;;;;32.41;30.94;100642.09;5040914;28;20128;-87
2022/08/14 10:57:53;;;;;;;5.65;4.72;;;;;;;32.39;31.95;100634.16;5050035;28;20025;-87
2022/08/14 11:00:25;;;;;;;6.38;5.78;;;;;;;32.50;31.45;100634.03;5049216;28;20036;-88
2022/08/14 11:03:00;;;;;;;10.05;5.43;;;;;;;32.55;32.08;100630.81;5049445;28;20028;-87
2022/08/14 11:05:26;;;;;;;6.15;4.97;;;;;;;32.56;30.26;100623.28;5050009;28;20025;-87
2022/08/14 11:07:54;;;;;;;9.35;5.10;;;;;;;32.54;30.63;100636.75;5049534;28;20417;-87
2022/08/14 11:10:23;;;;;;;7.27;4.77;;;;;;;32.44;30.77;100633.72;5049413;28;20033;-88
2022/08/14 11:12:56;;;;;;;6.13;5.13;;;;;;;32.24;29.54;100627.19;5049236;28;20288;-86
2022/08/14 11:15:26;;;;;;;6.55;4.70;;;;;;;32.31;30.50;100622.38;5066671;28;20078;-87
2022/08/14 11:17:53;;;;;;;6.18;5.40;;;;;;;32.32;30.49;100628.69;5069569;28;20057;-87
2022/08/14 11:20:21;;;;;;;5.80;4.70;;;;;;;32.23;30.57;100625.63;5069432;28;20064;-87
2022/08/14 11:22:53;;;;;;;10.50;4.60;;;;;;;32.27;30.91;100627.19;5069499;28;20390;-87
2022/08/14 11:25:22;;;;;;;5.10;4.60;;;;;;;32.54;30.05;100631.22;5051894;28;20545;-87
2022/08/14 11:27:48;;;;;;;5.50;3.97;;;;;;;32.60;29.39;100619.25;5069435;28;20123;-88
2022/08/14 11:30:18;;;;;;;5.55;5.00;;;;;;;32.51;29.73;100612.63;5049986;28;20020;-87
2022/08/14 11:32:47;;;;;;;8.05;4.88;;;;;;;32.58;29.89;100618.09;5069697;28;20059;-87
2022/08/14 11:35:20;;;;;;;10.53;4.50;;;;;;;32.64;29.11;100619.22;5052090;28;20104;-87
2022/08/14 11:37:58;;;;;;;5.23;4.73;;;;;;;32.66;29.06;100618.78;5055577;28;20674;-86
2022/08/14 11:40:26;;;;;;;4.57;4.18;;;;;;;32.73;29.13;100613.16;5069038;28;20074;-86
2022/08/14 11:42:54;;;;;;;5.53;4.93;;;;;;;32.80;28.11;100618.59;5069440;28;20056;-88
2022/08/14 11:45:20;;;;;;;6.90;5.18;;;;;;;32.75;29.42;100610.75;5069553;28;20051;-88
2022/08/14 11:47:45;;;;;;;6.75;4.47;;;;;;;32.92;29.06;100595.88;5053216;28;20064;-88
2022/08/14 11:50:16;;;;;;;5.40;4.90;;;;;;;32.72;28.84;100583.88;5048256;28;20099;-87
2022/08/14 11:52:43;;;;;;;6.85;4.60;;;;;;;32.74;28.22;100581.47;5048910;28;20559;-87